createdAt,value
2023-03-21T00:01:16.353Z,98.37
2023-03-21T00:03:51.485Z,106.50
2023-03-21T00:06:25.969Z,111.32
2023-03-21T00:08:59.140Z,109.97
2023-03-21T00:11:32.586Z,108.17
2023-03-21T00:14:07.975Z,114.72
2023-03-21T00:16:41.433Z,109.00
2023-03-21T00:19:16.257Z,109.12
2023-03-21T00:22:05.837Z,105.47
2023-03-21T00:24:25.855Z,108.72
2023-03-21T00:27:15.806Z,106.83
2023-03-21T00:29:33.708Z,103.02
2023-03-21T00:32:07.320Z,105.83
2023-03-21T00:34:54.504Z,106.30
2023-03-21T00:37:16.588Z,111.77
2023-03-21T00:39:50.652Z,106.00
2023-03-21T00:42:24.591Z,106.35
2023-03-21T00:44:57.488Z,119.02
2023-03-21T00:47:30.451Z,118.08
2023-03-21T00:50:03.370Z,112.60
2023-03-21T00:52:40.814Z,123.85
2023-03-21T00:55:17.717Z,128.97
2023-03-21T00:58:01.141Z,117.62
2023-03-21T01:00:25.527Z,115.40
2023-03-21T01:03:11.176Z,114.70
2023-03-21T01:05:57.855Z,109.30
2023-03-21T01:08:44.674Z,120.50
2023-03-21T01:11:10.745Z,108.92
2023-03-21T01:13:53.752Z,105.52
2023-03-21T01:16:19.116Z,105.87
2023-03-21T01:18:52.346Z,107.12
2023-03-21T01:21:25.482Z,109.87
2023-03-21T01:24:02.142Z,102.38
2023-03-21T01:26:37.834Z,104.07
2023-03-21T01:29:10.685Z,98.67
2023-03-21T01:31:44.136Z,107.55
2023-03-21T01:34:17.728Z,96.70
2023-03-21T01:36:52.654Z,93.05
2023-03-21T01:39:26.386Z,101.27
2023-03-21T01:41:59.463Z,109.70
2023-03-21T01:44:34.961Z,102.58
2023-03-21T01:47:12.809Z,97.72
2023-03-21T01:49:54.191Z,98.52
2023-03-21T01:52:38.404Z,96.30
2023-03-21T01:55:14.380Z,93.30
2023-03-21T01:58:05.234Z,102.40
2023-03-21T02:00:32.185Z,105.32
2023-03-21T02:03:18.900Z,105.35
2023-03-21T02:06:13.079Z,98.20
2023-03-21T02:08:49.056Z,122.60
2023-03-21T02:11:24.242Z,110.72
2023-03-21T02:14:06.780Z,121.77
2023-03-21T02:16:55.633Z,118.50
2023-03-21T02:19:53.800Z,110.52
2023-03-21T02:23:15.365Z,112.25
2023-03-21T02:26:14.901Z,110.80
2023-03-21T02:29:10.919Z,110.40
2023-03-21T02:32:20.003Z,112.45
2023-03-21T02:35:29.783Z,118.13
2023-03-21T02:38:17.093Z,116.17
2023-03-21T02:41:01.746Z,114.08
2023-03-21T02:43:55.698Z,111.68
2023-03-21T02:46:53.804Z,125.50
2023-03-21T02:49:34.096Z,120.87
2023-03-21T02:52:17.103Z,123.92
2023-03-21T02:54:48.816Z,106.83
2023-03-21T02:57:33.792Z,116.73
2023-03-21T03:00:15.600Z,119.70
2023-03-21T03:02:41.856Z,124.10
2023-03-21T03:05:26.101Z,106.90
2023-03-21T03:08:24.029Z,107.22
2023-03-21T03:11:10.435Z,109.25
2023-03-21T03:14:41.995Z,110.25
2023-03-21T03:17:37.610Z,106.13
2023-03-21T03:20:18.217Z,101.90
2023-03-21T03:23:10.608Z,102.60
2023-03-21T03:25:56.824Z,103.30
2023-03-21T03:28:39.881Z,98.83
2023-03-21T03:33:53.340Z,80.47
2023-03-21T03:36:33.160Z,78.78
2023-03-21T03:39:13.986Z,89.15
2023-03-21T03:42:10.150Z,86.37
2023-03-21T03:44:33.595Z,79.15
2023-03-21T03:47:55.966Z,88.12
2023-03-21T03:50:48.736Z,83.50
2023-03-21T03:53:38.730Z,90.93
2023-03-21T03:56:15.906Z,102.82
2023-03-21T03:58:49.255Z,87.15
2023-03-21T04:01:23.496Z,91.42
2023-03-21T04:04:10.428Z,90.03
2023-03-21T04:06:31.881Z,92.10
2023-03-21T04:09:13.692Z,105.63
2023-03-21T04:11:40.328Z,101.53
2023-03-21T04:14:14.230Z,103.45
2023-03-21T04:16:48.042Z,94.80
2023-03-21T04:19:21.637Z,103.23
2023-03-21T04:21:54.547Z,118.03
2023-03-21T04:24:28.863Z,117.17
2023-03-21T04:32:11.486Z,116.82
2023-03-21T04:34:49.037Z,113.10
2023-03-21T04:37:24.019Z,110.25
2023-03-21T04:39:57.839Z,109.78
2023-03-21T04:42:30.823Z,109.42
2023-03-21T04:45:08.848Z,87.33
2023-03-21T04:47:42.419Z,54.67
2023-03-21T04:50:16.948Z,56.33
2023-03-21T04:52:49.841Z,66.05
2023-03-21T04:55:23.536Z,70.03
2023-03-21T04:57:57.015Z,57.55
2023-03-21T05:00:31.483Z,56.77
2023-03-21T05:03:07.677Z,52.93
2023-03-21T05:05:41.016Z,54.67
2023-03-21T05:08:14.298Z,52.30
2023-03-21T05:10:47.859Z,53.63
2023-03-21T05:13:21.909Z,44.70
2023-03-21T05:15:55.107Z,51.88
2023-03-21T05:18:28.589Z,52.35
2023-03-21T05:21:08.686Z,45.78
2023-03-21T05:23:42.157Z,44.70
2023-03-21T05:26:16.409Z,48.70
2023-03-21T05:28:53.028Z,47.17
2023-03-21T05:31:33.597Z,46.20
2023-03-21T05:34:08.055Z,46.53
2023-03-21T05:36:44.015Z,49.80
2023-03-21T05:39:18.519Z,39.42
2023-03-21T05:41:53.101Z,34.70
2023-03-21T05:44:26.094Z,33.95
2023-03-21T05:46:59.950Z,39.48
2023-03-21T05:49:37.086Z,43.85
2023-03-21T05:52:10.931Z,36.17
2023-03-21T05:54:45.132Z,32.03
2023-03-21T05:57:19.545Z,36.88
2023-03-21T05:59:57.420Z,35.68
2023-03-21T06:02:30.770Z,38.15
2023-03-21T06:05:06.572Z,36.88
2023-03-21T06:07:40.541Z,35.75
2023-03-21T06:10:15.060Z,35.25
2023-03-21T06:12:49.875Z,38.88
2023-03-21T06:18:14.001Z,41.45
2023-03-21T06:20:48.888Z,39.35
2023-03-21T06:23:22.407Z,42.08
2023-03-21T06:25:55.267Z,39.70
2023-03-21T06:28:30.069Z,36.88
2023-03-21T06:31:07.571Z,39.90
2023-03-21T06:33:40.856Z,44.08
2023-03-21T06:36:14.280Z,44.95
2023-03-21T06:38:48.892Z,43.50
2023-03-21T06:41:22.722Z,37.65
2023-03-21T06:44:01.683Z,42.65
2023-03-21T06:46:36.218Z,44.13
2023-03-21T06:49:09.171Z,47.58
2023-03-21T06:51:42.649Z,43.02
2023-03-21T06:54:19.072Z,46.45
2023-03-21T06:56:57.496Z,47.30
2023-03-21T06:59:32.379Z,56.00
2023-03-21T07:02:22.041Z,59.53
2023-03-21T07:05:03.189Z,62.53
2023-03-21T07:07:37.273Z,60.78
2023-03-21T07:10:13.581Z,63.17
2023-03-21T07:12:49.109Z,63.63
2023-03-21T07:15:25.382Z,69.62
2023-03-21T07:17:58.921Z,65.22
2023-03-21T07:20:32.112Z,64.85
2023-03-21T07:23:05.022Z,58.87
2023-03-21T07:25:38.647Z,59.98
2023-03-21T07:30:45.183Z,60.70
2023-03-21T07:33:20.432Z,58.52
2023-03-21T07:35:57.609Z,69.80
2023-03-21T07:38:31.437Z,59.90
2023-03-21T07:41:04.556Z,55.30
2023-03-21T07:43:39.585Z,58.85
2023-03-21T07:46:14.438Z,72.85
2023-03-21T07:48:49.379Z,59.00
2023-03-21T07:51:22.795Z,57.75
2023-03-21T07:53:55.746Z,66.17
2023-03-21T07:56:29.262Z,63.60
2023-03-21T07:59:04.870Z,67.90
2023-03-21T08:01:38.591Z,62.08
2023-03-21T08:04:11.768Z,56.30
2023-03-21T08:06:44.583Z,63.15
2023-03-21T08:09:17.888Z,63.63
2023-03-21T08:11:50.990Z,58.17
2023-03-21T08:14:24.251Z,59.63
2023-03-21T08:16:57.138Z,56.88
2023-03-21T08:19:31.413Z,48.33
2023-03-21T08:22:06.480Z,50.03
2023-03-21T08:24:39.778Z,61.70
2023-03-21T08:27:14.269Z,56.85
2023-03-21T08:29:47.073Z,43.70
2023-03-21T08:32:21.530Z,42.40
2023-03-21T08:34:54.977Z,43.23
2023-03-21T08:37:29.417Z,32.90
2023-03-21T08:40:03.620Z,29.98
2023-03-21T08:42:39.517Z,38.50
2023-03-21T08:45:15.823Z,33.73
2023-03-21T08:47:49.706Z,25.90
2023-03-21T08:50:27.298Z,27.42
2023-03-21T08:53:00.096Z,22.22
2023-03-21T08:55:33.603Z,22.93
2023-03-21T09:00:39.807Z,22.48
2023-03-21T09:03:12.939Z,21.52
2023-03-21T09:05:45.952Z,32.08
2023-03-21T09:08:21.159Z,27.95
2023-03-21T09:10:57.682Z,25.23
2023-03-21T09:13:31.322Z,30.72
2023-03-21T09:16:05.609Z,28.33
2023-03-21T09:18:49.157Z,27.20
2023-03-21T09:21:24.000Z,30.08
2023-03-21T09:24:00.171Z,21.23
2023-03-21T09:26:33.686Z,18.52
2023-03-21T09:29:07.897Z,24.32
2023-03-21T09:31:41.016Z,35.43
2023-03-21T09:34:18.156Z,27.42
2023-03-21T09:36:52.542Z,29.75
2023-03-21T09:39:27.403Z,38.55
2023-03-21T09:42:13.190Z,29.27
2023-03-21T09:45:15.987Z,28.55
2023-03-21T09:47:52.989Z,24.70
2023-03-21T09:50:39.265Z,28.05
2023-03-21T09:53:23.803Z,28.38
2023-03-21T09:55:57.031Z,21.27
2023-03-21T09:58:40.982Z,21.13
2023-03-21T10:01:25.531Z,15.88
2023-03-21T10:04:01.366Z,22.45
2023-03-21T10:06:38.808Z,20.05
2023-03-21T10:09:23.856Z,31.05
2023-03-21T10:12:04.413Z,20.45
2023-03-21T10:14:47.197Z,16.67
2023-03-21T10:17:38.222Z,16.62
2023-03-21T10:20:21.913Z,21.87
2023-03-21T10:22:57.210Z,30.37
2023-03-21T10:25:37.474Z,22.55
2023-03-21T10:28:18.675Z,21.02
2023-03-21T10:31:02.463Z,20.48
2023-03-21T10:33:43.564Z,28.83
2023-03-21T10:36:30.483Z,16.85
2023-03-21T10:39:07.418Z,15.30
2023-03-21T10:41:40.666Z,13.22
2023-03-21T10:44:17.784Z,11.63
2023-03-21T10:46:57.739Z,12.37
2023-03-21T10:49:40.197Z,17.45
2023-03-21T10:52:12.205Z,13.50
2023-03-21T10:54:46.062Z,17.50
2023-03-21T10:57:24.618Z,15.70
2023-03-21T11:00:01.401Z,16.70
2023-03-21T11:02:39.613Z,22.52
2023-03-21T11:05:31.134Z,13.55
2023-03-21T11:08:08.690Z,17.73
2023-03-21T11:11:05.268Z,16.23
2023-03-21T11:13:43.095Z,14.18
2023-03-21T11:16:35.002Z,14.60
2023-03-21T11:19:30.191Z,9.85
2023-03-21T11:22:12.175Z,10.05
2023-03-21T11:24:50.519Z,12.03
2023-03-21T11:27:25.661Z,7.92
2023-03-21T11:30:00.289Z,10.90
2023-03-21T11:32:37.535Z,9.55
2023-03-21T11:35:21.178Z,10.30
2023-03-21T11:37:57.023Z,7.50
2023-03-21T11:40:32.513Z,10.75
2023-03-21T11:43:23.459Z,16.00
2023-03-21T11:46:09.060Z,12.15
2023-03-21T11:48:47.344Z,10.50
2023-03-21T11:51:30.915Z,10.98
2023-03-21T11:54:25.631Z,8.68
2023-03-21T11:57:18.494Z,12.15
2023-03-21T12:00:09.653Z,8.55
2023-03-21T12:03:14.792Z,11.65
2023-03-21T12:05:56.317Z,13.63
2023-03-21T12:08:52.287Z,9.13
2023-03-21T12:11:55.107Z,11.78
2023-03-21T12:14:47.604Z,9.90
2023-03-21T12:17:33.579Z,11.25
2023-03-21T12:20:34.968Z,10.05
2023-03-21T12:23:39.639Z,18.73
2023-03-21T12:26:28.582Z,12.88
2023-03-21T12:29:39.757Z,12.25
2023-03-21T12:32:34.478Z,12.05
2023-03-21T12:35:35.201Z,13.90
2023-03-21T12:38:35.346Z,10.70
2023-03-21T12:41:27.696Z,12.85
2023-03-21T12:44:18.553Z,14.50
2023-03-21T12:47:07.747Z,13.90
2023-03-21T12:49:57.633Z,15.28
2023-03-21T12:52:38.021Z,18.67
2023-03-21T12:55:27.677Z,16.97
2023-03-21T12:58:21.724Z,16.23
2023-03-21T13:00:58.541Z,33.60
2023-03-21T13:04:00.583Z,32.85
2023-03-21T13:06:34.636Z,16.67
2023-03-21T13:09:36.766Z,16.15
2023-03-21T13:12:00.849Z,16.73
2023-03-21T13:14:38.092Z,12.03
2023-03-21T13:17:24.510Z,15.13
2023-03-21T13:20:02.117Z,13.48
2023-03-21T13:22:36.582Z,17.92
2023-03-21T13:25:22.232Z,20.10
2023-03-21T13:28:05.166Z,17.23
2023-03-21T13:30:38.831Z,19.62
2023-03-21T13:33:30.942Z,17.77
2023-03-21T13:36:09.332Z,12.63
2023-03-21T13:38:43.710Z,15.83
2023-03-21T13:41:23.787Z,14.05
2023-03-21T13:44:19.411Z,16.55
2023-03-21T13:47:08.412Z,14.43
2023-03-21T13:49:42.458Z,16.17
2023-03-21T13:52:29.045Z,20.55
2023-03-21T13:55:03.301Z,15.30
2023-03-21T13:57:39.258Z,13.28
2023-03-21T14:00:31.690Z,15.35
2023-03-21T14:03:13.737Z,11.78
2023-03-21T14:05:51.864Z,15.32
2023-03-21T14:08:36.772Z,16.50
2023-03-21T14:11:02.875Z,14.30
2023-03-21T14:13:48.408Z,10.28
2023-03-21T14:16:18.213Z,10.18
2023-03-21T14:18:56.140Z,10.08
2023-03-21T14:21:36.439Z,13.25
2023-03-21T14:24:13.830Z,10.58
2023-03-21T14:26:51.460Z,14.83
2023-03-21T14:29:35.847Z,11.15
2023-03-21T14:32:08.855Z,10.40
2023-03-21T14:34:43.438Z,11.83
2023-03-21T14:37:32.503Z,10.90
2023-03-21T14:40:10.058Z,10.78
2023-03-21T14:42:42.917Z,14.43
2023-03-21T14:45:21.814Z,10.58
2023-03-21T14:48:04.094Z,8.70
2023-03-21T14:50:53.448Z,17.77
2023-03-21T14:53:33.651Z,11.10
2023-03-21T14:56:23.680Z,7.97
2023-03-21T14:58:57.293Z,8.58
2023-03-21T15:01:35.412Z,12.68
2023-03-21T15:04:09.309Z,14.95
2023-03-21T15:06:57.459Z,10.95
2023-03-21T15:09:34.005Z,8.45
2023-03-21T15:12:09.959Z,15.48
2023-03-21T15:14:43.456Z,12.63
2023-03-21T15:17:16.410Z,20.88
2023-03-21T15:19:49.845Z,18.90
2023-03-21T15:22:44.334Z,13.65
2023-03-21T15:27:52.755Z,9.43
2023-03-21T15:30:29.905Z,12.58
2023-03-21T15:33:14.856Z,12.88
2023-03-21T15:35:58.175Z,9.58
2023-03-21T15:38:44.794Z,11.48
2023-03-21T15:41:28.017Z,10.23
2023-03-21T15:44:11.524Z,13.03
2023-03-21T15:46:51.142Z,12.98
2023-03-21T15:49:36.038Z,16.67
2023-03-21T15:52:15.805Z,23.27
2023-03-21T15:54:53.283Z,17.77
2023-03-21T15:57:33.587Z,14.70
2023-03-21T16:00:36.348Z,18.00
2023-03-21T16:03:19.600Z,16.10
2023-03-21T16:06:17.734Z,20.52
2023-03-21T16:08:53.883Z,22.85
2023-03-21T16:11:30.036Z,16.60
2023-03-21T16:14:02.904Z,21.33
2023-03-21T16:16:36.082Z,20.88
2023-03-21T16:19:09.718Z,19.52
2023-03-21T16:21:43.400Z,20.17
2023-03-21T16:24:16.263Z,25.70
2023-03-21T16:26:55.471Z,21.02
2023-03-21T16:29:28.859Z,29.90
2023-03-21T16:32:04.154Z,36.70
2023-03-21T16:34:37.655Z,22.82
2023-03-21T16:37:13.162Z,24.80
2023-03-21T16:39:46.682Z,28.38
2023-03-21T16:42:19.545Z,35.13
2023-03-21T16:44:53.041Z,32.63
2023-03-21T16:47:25.925Z,33.48
2023-03-21T16:49:58.714Z,27.25
2023-03-21T16:52:31.662Z,29.70
2023-03-21T16:55:04.627Z,24.15
2023-03-21T16:57:38.036Z,25.80
2023-03-21T17:00:14.146Z,25.27
2023-03-21T17:02:49.942Z,22.35
2023-03-21T17:05:28.087Z,26.77
2023-03-21T17:08:04.911Z,27.07
2023-03-21T17:10:38.246Z,24.37
2023-03-21T17:13:11.470Z,29.07
2023-03-21T17:15:44.895Z,28.10
2023-03-21T17:18:18.300Z,25.85
2023-03-21T17:23:24.010Z,28.70
2023-03-21T17:25:57.993Z,21.53
2023-03-21T17:28:31.174Z,25.20
2023-03-21T17:31:05.882Z,29.42
2023-03-21T17:33:39.323Z,23.83
2023-03-21T17:36:25.414Z,29.72
2023-03-21T17:38:58.306Z,22.98
2023-03-21T17:41:33.209Z,26.65
2023-03-21T17:44:06.840Z,27.62
2023-03-21T17:46:40.366Z,26.93
2023-03-21T17:49:16.684Z,28.85
2023-03-21T17:51:50.711Z,23.55
2023-03-21T17:54:23.553Z,26.07
2023-03-21T17:56:56.987Z,25.17
2023-03-21T17:59:29.940Z,24.82
2023-03-21T18:02:03.532Z,20.57
2023-03-21T18:04:37.094Z,23.42
2023-03-21T18:07:22.317Z,20.88
2023-03-21T18:09:51.328Z,22.67
2023-03-21T18:12:25.269Z,19.00
2023-03-21T18:17:33.459Z,20.55
2023-03-21T18:20:10.231Z,26.15
2023-03-21T18:22:45.653Z,22.02
2023-03-21T18:25:19.077Z,22.70
2023-03-21T18:28:09.865Z,21.13
2023-03-21T18:30:50.122Z,28.40
2023-03-21T18:33:01.360Z,23.95
2023-03-21T18:35:34.409Z,24.75
2023-03-21T18:38:07.507Z,27.00
2023-03-21T18:40:41.213Z,20.17
2023-03-21T18:43:59.340Z,22.60
2023-03-21T18:45:49.028Z,19.48
2023-03-21T18:48:22.592Z,25.00
2023-03-21T18:50:55.552Z,22.70
2023-03-21T18:53:29.952Z,24.35
2023-03-21T18:56:03.234Z,30.30
2023-03-21T18:58:36.623Z,28.23
2023-03-21T19:01:09.675Z,25.20
2023-03-21T19:03:44.555Z,25.08
2023-03-21T19:06:17.854Z,36.15
2023-03-21T19:08:51.770Z,30.90
2023-03-21T19:11:25.168Z,24.90
2023-03-21T19:13:59.625Z,28.70
2023-03-21T19:16:55.970Z,29.40
2023-03-21T19:21:39.432Z,30.62
2023-03-21T19:24:28.959Z,26.52
2023-03-21T19:26:48.140Z,35.85
2023-03-21T19:29:21.457Z,31.25
2023-03-21T19:31:54.298Z,31.37
2023-03-21T19:34:29.789Z,35.08
2023-03-21T19:37:03.021Z,31.10
2023-03-21T19:39:36.565Z,37.47
2023-03-21T19:42:16.818Z,31.40
2023-03-21T19:47:15.685Z,33.70
2023-03-21T19:50:39.504Z,37.93
2023-03-21T19:54:55.816Z,39.83
2023-03-21T19:57:28.570Z,33.28
2023-03-21T20:00:01.455Z,35.60
2023-03-21T20:02:37.275Z,34.92
2023-03-21T20:07:43.572Z,39.48
2023-03-21T20:10:16.974Z,38.42
2023-03-21T20:12:49.959Z,41.20
2023-03-21T20:15:25.969Z,47.38
2023-03-21T20:17:58.155Z,37.70
2023-03-21T20:20:31.908Z,45.05
2023-03-21T20:23:08.131Z,38.60
2023-03-21T20:25:49.590Z,38.48
2023-03-21T20:28:27.138Z,43.45
2023-03-21T20:31:00.411Z,31.95
2023-03-21T20:33:33.919Z,39.25
2023-03-21T20:38:44.149Z,37.93
2023-03-21T20:41:17.320Z,38.02
2023-03-21T20:46:25.933Z,39.58
2023-03-21T20:48:59.886Z,34.10
2023-03-21T20:52:35.956Z,32.95
2023-03-21T20:54:09.035Z,34.88
2023-03-21T20:56:42.838Z,37.50
2023-03-21T20:59:25.596Z,39.60
2023-03-21T21:01:51.462Z,35.50
2023-03-21T21:04:46.704Z,40.75
2023-03-21T21:07:02.613Z,36.45
2023-03-21T21:09:35.464Z,43.73
2023-03-21T21:12:09.848Z,49.90
2023-03-21T21:14:44.247Z,34.67
2023-03-21T21:18:01.909Z,34.67
2023-03-21T21:19:53.349Z,38.28
2023-03-21T21:22:27.889Z,38.20
2023-03-21T21:25:01.959Z,39.08
2023-03-21T21:27:35.583Z,40.37
2023-03-21T21:30:10.305Z,36.50
2023-03-21T21:32:43.601Z,38.05
2023-03-21T21:35:17.890Z,42.48
2023-03-21T21:37:51.926Z,39.15
2023-03-21T21:40:25.841Z,41.92
2023-03-21T21:43:01.093Z,40.75
2023-03-21T21:45:34.328Z,43.28
2023-03-21T21:48:08.470Z,48.98
2023-03-21T21:50:44.125Z,44.58
2023-03-21T21:53:18.531Z,37.85
2023-03-21T21:55:52.580Z,50.70
2023-03-21T21:58:26.221Z,55.38
2023-03-21T22:01:03.169Z,47.62
2023-03-21T22:03:37.696Z,46.92
2023-03-21T22:06:11.748Z,42.60
2023-03-21T22:08:46.950Z,48.30
2023-03-21T22:11:21.050Z,45.03
2023-03-21T22:13:53.862Z,44.88
2023-03-21T22:16:26.912Z,48.63
2023-03-21T22:18:59.937Z,40.08
2023-03-21T22:21:33.200Z,47.10
2023-03-21T22:24:07.351Z,47.62
2023-03-21T22:26:41.355Z,48.73
2023-03-21T22:29:15.169Z,46.48
2023-03-21T22:31:48.121Z,43.35
2023-03-21T22:34:24.336Z,48.02
2023-03-21T22:36:58.024Z,49.40
2023-03-21T22:39:31.658Z,48.07
2023-03-21T22:42:06.625Z,41.98
2023-03-21T22:44:40.077Z,45.87
2023-03-21T22:47:13.937Z,46.73
2023-03-21T22:49:47.274Z,47.67
2023-03-21T22:52:20.757Z,47.30
2023-03-21T22:54:53.610Z,45.17
2023-03-21T22:57:26.551Z,46.15
2023-03-21T22:59:59.683Z,46.77
2023-03-21T23:02:32.543Z,42.23
2023-03-21T23:05:05.463Z,47.90
2023-03-21T23:07:40.122Z,47.65
2023-03-21T23:10:14.643Z,47.03
2023-03-21T23:12:47.444Z,55.67
2023-03-21T23:15:21.477Z,51.08
2023-03-21T23:17:54.851Z,57.65
2023-03-21T23:20:27.745Z,44.33
2023-03-21T23:23:01.670Z,49.40
2023-03-21T23:25:36.453Z,56.08
2023-03-21T23:28:09.096Z,51.73
2023-03-21T23:30:42.249Z,44.80
2023-03-21T23:33:15.099Z,61.65
2023-03-21T23:35:47.886Z,55.67
2023-03-21T23:38:21.151Z,48.17
2023-03-21T23:40:54.555Z,54.45
2023-03-21T23:43:29.644Z,51.63
2023-03-21T23:46:02.681Z,54.20
2023-03-21T23:48:36.858Z,52.60
2023-03-21T23:51:12.250Z,51.53
2023-03-21T23:53:47.613Z,50.28
2023-03-21T23:56:24.073Z,48.23
2023-03-21T23:58:59.316Z,57.53
